createdAt,value
2018-12-16T00:01:00.517Z,2.94
2018-12-16T00:03:28.751Z,2.96
2018-12-16T00:05:56.929Z,3.00
2018-12-16T00:08:25.084Z,3.01
2018-12-16T00:10:53.255Z,3.00
2018-12-16T00:13:21.560Z,3.02
2018-12-16T00:15:49.733Z,3.01
2018-12-16T00:18:17.984Z,3.02
2018-12-16T00:20:46.187Z,3.04
2018-12-16T00:23:14.372Z,3.05
2018-12-16T00:25:42.535Z,3.03
2018-12-16T00:28:11.011Z,3.04
2018-12-16T00:30:39.214Z,3.03
2018-12-16T00:33:07.372Z,3.07
2018-12-16T00:35:35.525Z,3.02
2018-12-16T00:38:03.845Z,3.02
2018-12-16T00:40:31.987Z,3.06
2018-12-16T00:43:00.150Z,3.06
2018-12-16T00:45:28.383Z,3.10
2018-12-16T00:47:56.644Z,3.31
2018-12-16T00:50:24.803Z,3.11
2018-12-16T00:52:53.103Z,3.08
2018-12-16T00:55:21.368Z,3.00
2018-12-16T00:57:49.544Z,3.00
2018-12-16T01:00:17.799Z,3.04
2018-12-16T01:02:45.990Z,3.03
2018-12-16T01:05:14.543Z,3.03
2018-12-16T01:07:42.807Z,3.01
2018-12-16T01:10:11.531Z,3.19
2018-12-16T01:12:39.740Z,3.06
2018-12-16T01:15:08.195Z,3.05
2018-12-16T01:17:36.368Z,3.14
2018-12-16T01:20:05.919Z,3.15
2018-12-16T01:22:34.101Z,3.10
2018-12-16T01:25:02.274Z,3.13
2018-12-16T01:27:30.447Z,3.18
2018-12-16T01:29:58.616Z,3.30
2018-12-16T01:32:26.792Z,3.12
2018-12-16T01:34:54.956Z,3.10
2018-12-16T01:37:23.264Z,3.15
2018-12-16T01:39:51.431Z,3.24
2018-12-16T01:42:19.603Z,3.18
2018-12-16T01:44:47.768Z,3.19
2018-12-16T01:47:15.935Z,3.23
2018-12-16T01:49:44.212Z,3.24
2018-12-16T01:52:12.480Z,3.23
2018-12-16T01:54:40.657Z,3.27
2018-12-16T01:57:08.915Z,3.28
2018-12-16T01:59:37.091Z,3.25
2018-12-16T02:02:05.352Z,3.24
2018-12-16T02:04:33.537Z,3.22
2018-12-16T02:07:01.706Z,3.20
2018-12-16T02:09:29.899Z,3.20
2018-12-16T02:11:58.064Z,3.25
2018-12-16T02:14:29.899Z,3.23
2018-12-16T02:16:58.067Z,3.24
2018-12-16T02:19:26.644Z,3.25
2018-12-16T02:21:54.816Z,3.29
2018-12-16T02:24:22.991Z,3.33
2018-12-16T02:26:51.151Z,3.35
2018-12-16T02:29:19.324Z,3.35
2018-12-16T02:31:47.500Z,3.32
2018-12-16T02:34:15.695Z,3.29
2018-12-16T02:36:43.952Z,3.28
2018-12-16T02:39:12.127Z,3.23
2018-12-16T02:41:40.296Z,3.22
2018-12-16T02:44:08.566Z,3.23
2018-12-16T02:46:36.724Z,3.26
2018-12-16T02:49:04.939Z,3.22
2018-12-16T02:51:33.121Z,3.22
2018-12-16T02:54:01.380Z,3.23
2018-12-16T02:56:29.562Z,3.23
2018-12-16T02:58:57.730Z,3.25
2018-12-16T03:01:25.910Z,3.20
2018-12-16T03:03:54.171Z,3.15
2018-12-16T03:06:22.449Z,3.10
2018-12-16T03:08:50.616Z,3.10
2018-12-16T03:11:18.800Z,3.12
2018-12-16T03:13:46.963Z,3.05
2018-12-16T03:16:15.132Z,3.00
2018-12-16T03:18:43.300Z,3.02
2018-12-16T03:21:11.496Z,3.07
2018-12-16T03:23:39.867Z,3.11
2018-12-16T03:26:08.031Z,3.19
2018-12-16T03:28:36.244Z,3.22
2018-12-16T03:31:04.726Z,3.28
2018-12-16T03:33:32.944Z,3.30
2018-12-16T03:36:01.153Z,3.32
2018-12-16T03:38:29.317Z,3.35
2018-12-16T03:40:57.498Z,3.37
2018-12-16T03:43:25.659Z,3.33
2018-12-16T03:45:53.861Z,3.28
2018-12-16T03:48:22.224Z,3.28
2018-12-16T03:50:50.416Z,3.28
2018-12-16T03:53:19.988Z,3.25
2018-12-16T03:55:48.643Z,3.20
2018-12-16T03:58:16.790Z,3.19
2018-12-16T04:00:44.987Z,3.20
2018-12-16T04:03:13.135Z,3.26
2018-12-16T04:05:41.290Z,3.23
2018-12-16T04:08:09.468Z,3.26
2018-12-16T04:10:37.627Z,3.24
2018-12-16T04:13:05.889Z,3.31
2018-12-16T04:15:34.244Z,3.26
2018-12-16T04:18:02.405Z,3.18
2018-12-16T04:20:30.825Z,3.10
2018-12-16T04:22:58.988Z,3.04
2018-12-16T04:25:27.249Z,3.07
2018-12-16T04:27:55.404Z,3.10
2018-12-16T04:30:23.562Z,3.12
2018-12-16T04:32:51.812Z,3.17
2018-12-16T04:35:20.059Z,3.22
2018-12-16T04:37:48.216Z,3.26
2018-12-16T04:40:16.440Z,3.30
2018-12-16T04:42:44.610Z,3.26
2018-12-16T04:45:12.932Z,3.28
2018-12-16T04:47:41.087Z,3.32
2018-12-16T04:50:09.329Z,3.31
2018-12-16T04:52:37.588Z,3.34
2018-12-16T04:55:06.116Z,3.37
2018-12-16T04:57:34.282Z,3.39
2018-12-16T05:00:02.433Z,3.43
2018-12-16T05:02:30.600Z,3.50
2018-12-16T05:04:58.791Z,3.52
2018-12-16T05:07:26.984Z,3.54
2018-12-16T05:09:59.576Z,3.59
2018-12-16T05:12:27.782Z,3.62
2018-12-16T05:14:55.940Z,3.66
2018-12-16T05:17:24.100Z,3.70
2018-12-16T05:19:52.259Z,3.67
2018-12-16T05:22:20.412Z,3.70
2018-12-16T05:24:48.606Z,3.66
2018-12-16T05:27:16.748Z,3.69
2018-12-16T05:29:44.914Z,3.66
2018-12-16T05:32:13.059Z,3.72
2018-12-16T05:34:41.319Z,3.73
2018-12-16T05:37:09.469Z,3.76
2018-12-16T05:39:37.631Z,3.76
2018-12-16T05:42:05.787Z,3.79
2018-12-16T05:44:34.016Z,3.80
2018-12-16T05:47:02.165Z,3.76
2018-12-16T05:49:30.337Z,3.69
2018-12-16T05:51:58.501Z,3.58
2018-12-16T05:54:26.756Z,3.56
2018-12-16T05:56:54.911Z,3.61
2018-12-16T05:59:23.172Z,3.52
2018-12-16T06:01:51.344Z,3.48
2018-12-16T06:04:19.504Z,3.31
2018-12-16T06:06:47.665Z,3.27
2018-12-16T06:09:15.875Z,3.21
2018-12-16T06:11:44.023Z,3.20
2018-12-16T06:14:12.184Z,3.17
2018-12-16T06:16:40.482Z,3.16
2018-12-16T06:19:08.685Z,3.17
2018-12-16T06:21:36.923Z,3.18
2018-12-16T06:24:05.072Z,3.15
2018-12-16T06:26:33.232Z,3.14
2018-12-16T06:29:01.463Z,3.16
2018-12-16T06:31:29.627Z,3.16
2018-12-16T06:33:57.776Z,3.18
2018-12-16T06:36:25.936Z,3.22
2018-12-16T06:38:54.079Z,3.17
2018-12-16T06:41:22.240Z,3.14
2018-12-16T06:43:50.379Z,3.11
2018-12-16T06:46:18.535Z,3.08
2018-12-16T06:48:46.696Z,3.10
2018-12-16T06:51:14.878Z,3.11
2018-12-16T06:53:43.073Z,3.11
2018-12-16T06:56:11.265Z,3.08
2018-12-16T06:58:39.431Z,3.15
2018-12-16T07:01:07.600Z,3.10
2018-12-16T07:03:35.816Z,3.04
2018-12-16T07:06:03.987Z,3.00
2018-12-16T07:08:32.139Z,3.01
2018-12-16T07:11:00.399Z,3.02
2018-12-16T07:13:28.569Z,3.06
2018-12-16T07:15:56.865Z,3.12
2018-12-16T07:18:25.028Z,3.12
2018-12-16T07:20:53.348Z,3.16
2018-12-16T07:23:21.585Z,3.20
2018-12-16T07:25:49.856Z,3.23
2018-12-16T07:28:18.016Z,3.25
2018-12-16T07:30:46.427Z,3.21
2018-12-16T07:33:16.635Z,3.13
2018-12-16T07:35:45.068Z,3.14
2018-12-16T07:38:13.364Z,3.14
2018-12-16T07:40:41.848Z,3.17
2018-12-16T07:43:10.057Z,3.23
2018-12-16T07:45:38.286Z,3.27
2018-12-16T07:48:06.478Z,3.28
2018-12-16T07:50:34.731Z,3.33
2018-12-16T07:53:03.075Z,3.32
2018-12-16T07:55:31.224Z,3.32
2018-12-16T07:57:59.575Z,3.33
2018-12-16T08:00:27.840Z,3.33
2018-12-16T08:02:56.107Z,3.35
2018-12-16T08:05:24.292Z,3.27
2018-12-16T08:07:52.451Z,3.22
2018-12-16T08:10:20.604Z,3.19
2018-12-16T08:12:48.772Z,3.21
2018-12-16T08:15:16.980Z,3.31
2018-12-16T08:17:45.223Z,3.31
2018-12-16T08:20:13.615Z,3.23
2018-12-16T08:22:41.868Z,3.17
2018-12-16T08:25:10.239Z,3.17
2018-12-16T08:27:38.396Z,3.13
2018-12-16T08:30:07.852Z,3.15
2018-12-16T08:32:36.003Z,3.17
2018-12-16T08:35:04.677Z,3.08
2018-12-16T08:37:32.951Z,2.97
2018-12-16T08:40:01.195Z,2.90
2018-12-16T08:42:29.442Z,2.90
2018-12-16T08:44:57.612Z,2.92
2018-12-16T08:47:32.893Z,2.90
2018-12-16T08:49:55.919Z,2.92
2018-12-16T08:52:24.158Z,2.88
2018-12-16T08:54:52.438Z,2.88
2018-12-16T08:57:20.667Z,2.90
2018-12-16T08:59:48.864Z,2.90
2018-12-16T09:02:17.152Z,2.70
2018-12-16T09:04:45.321Z,2.89
2018-12-16T09:07:13.480Z,2.87
2018-12-16T09:09:42.038Z,2.88
2018-12-16T09:12:10.269Z,2.96
2018-12-16T09:14:38.560Z,3.05
2018-12-16T09:17:06.728Z,3.16
2018-12-16T09:19:35.009Z,3.34
2018-12-16T09:22:03.508Z,3.32
2018-12-16T09:24:37.215Z,3.30
2018-12-16T09:27:01.933Z,3.29
2018-12-16T09:29:30.102Z,3.35
2018-12-16T09:31:58.335Z,3.43
2018-12-16T09:34:26.627Z,3.49
2018-12-16T09:36:54.927Z,3.59
2018-12-16T09:39:23.300Z,3.70
2018-12-16T09:41:51.495Z,3.86
2018-12-16T09:44:19.688Z,3.77
2018-12-16T09:46:47.846Z,3.77
2018-12-16T09:49:16.050Z,3.82
2018-12-16T09:51:44.307Z,3.77
2018-12-16T09:54:12.552Z,3.72
2018-12-16T09:56:40.867Z,3.77
2018-12-16T09:59:09.149Z,3.87
2018-12-16T10:01:37.583Z,3.94
2018-12-16T10:04:05.847Z,3.94
2018-12-16T10:06:34.140Z,4.00
2018-12-16T10:09:02.356Z,3.98
2018-12-16T10:11:30.535Z,3.98
2018-12-16T10:13:58.699Z,3.98
2018-12-16T10:16:26.891Z,3.87
2018-12-16T10:18:55.152Z,3.90
2018-12-16T10:21:23.491Z,3.90
2018-12-16T10:23:51.768Z,3.87
2018-12-16T10:26:20.069Z,3.83
2018-12-16T10:28:48.303Z,3.80
2018-12-16T10:31:16.586Z,3.85
2018-12-16T10:33:45.936Z,3.99
2018-12-16T10:36:14.165Z,3.95
2018-12-16T10:38:42.561Z,3.94
2018-12-16T10:41:10.824Z,3.94
2018-12-16T10:43:39.229Z,3.94
2018-12-16T10:46:07.487Z,4.03
2018-12-16T10:48:35.703Z,4.10
2018-12-16T10:51:04.000Z,4.28
2018-12-16T10:53:32.435Z,4.25
2018-12-16T10:56:00.691Z,4.31
2018-12-16T10:58:28.963Z,4.42
2018-12-16T11:01:02.640Z,4.55
2018-12-16T11:03:30.999Z,4.46
2018-12-16T11:05:59.227Z,4.44
2018-12-16T11:08:27.879Z,4.42
2018-12-16T11:10:56.311Z,4.39
2018-12-16T11:13:24.527Z,4.40
2018-12-16T11:15:52.967Z,4.35
2018-12-16T11:18:21.191Z,4.30
2018-12-16T11:20:49.488Z,4.12
2018-12-16T11:23:17.886Z,4.19
2018-12-16T11:25:49.932Z,4.17
2018-12-16T11:28:18.195Z,4.16
2018-12-16T11:30:46.355Z,4.25
2018-12-16T11:33:14.578Z,4.14
2018-12-16T11:35:42.808Z,4.14
2018-12-16T11:38:11.036Z,4.19
2018-12-16T11:40:39.195Z,4.34
2018-12-16T11:43:07.574Z,4.48
2018-12-16T11:45:35.817Z,4.49
2018-12-16T11:48:04.116Z,4.38
2018-12-16T11:50:32.321Z,4.43
2018-12-16T11:53:00.736Z,4.49
2018-12-16T11:55:29.409Z,4.52
2018-12-16T11:57:57.665Z,4.55
2018-12-16T12:00:25.921Z,4.61
2018-12-16T12:02:54.108Z,4.62
2018-12-16T12:05:22.276Z,4.61
2018-12-16T12:07:50.463Z,4.57
2018-12-16T12:10:18.626Z,4.57
2018-12-16T12:12:46.808Z,4.60
2018-12-16T12:15:14.975Z,4.55
2018-12-16T12:17:43.268Z,4.54
2018-12-16T12:20:11.635Z,4.57
2018-12-16T12:22:40.100Z,4.68
2018-12-16T12:25:08.471Z,4.67
2018-12-16T12:27:36.735Z,4.76
2018-12-16T12:30:06.708Z,4.88
2018-12-16T12:32:35.189Z,4.98
2018-12-16T12:35:03.988Z,5.02
2018-12-16T12:37:32.236Z,4.98
2018-12-16T12:40:00.525Z,4.99
2018-12-16T12:42:28.748Z,4.92
2018-12-16T12:44:56.980Z,4.88
2018-12-16T12:47:25.252Z,4.72
2018-12-16T12:49:53.549Z,4.68
2018-12-16T12:52:21.760Z,4.67
2018-12-16T12:54:49.976Z,4.66
2018-12-16T12:57:18.253Z,4.74
2018-12-16T12:59:46.542Z,4.74
2018-12-16T13:02:14.923Z,4.77
2018-12-16T13:04:43.186Z,4.79
2018-12-16T13:07:11.356Z,4.81
2018-12-16T13:09:39.643Z,4.85
2018-12-16T13:12:07.805Z,4.92
2018-12-16T13:14:35.988Z,5.00
2018-12-16T13:17:04.260Z,5.04
2018-12-16T13:19:32.567Z,5.10
2018-12-16T13:22:00.729Z,5.12
2018-12-16T13:24:28.899Z,5.11
2018-12-16T13:26:57.356Z,5.18
2018-12-16T13:29:25.662Z,5.22
2018-12-16T13:31:54.488Z,5.25
2018-12-16T13:34:22.676Z,5.27
2018-12-16T13:36:50.900Z,5.35
2018-12-16T13:39:19.071Z,5.30
2018-12-16T13:41:47.242Z,5.27
2018-12-16T13:44:15.419Z,5.23
2018-12-16T13:46:43.604Z,5.15
2018-12-16T13:49:11.867Z,5.07
2018-12-16T13:51:40.248Z,4.93
2018-12-16T13:54:08.751Z,4.85
2018-12-16T13:56:37.936Z,4.93
2018-12-16T13:59:06.101Z,4.94
2018-12-16T14:01:34.279Z,4.95
2018-12-16T14:04:02.542Z,5.00
2018-12-16T14:06:30.796Z,5.03
2018-12-16T14:08:59.041Z,4.97
2018-12-16T14:11:27.273Z,4.93
2018-12-16T14:13:55.452Z,4.97
2018-12-16T14:16:24.080Z,5.02
2018-12-16T14:18:52.523Z,5.02
2018-12-16T14:21:21.390Z,5.02
2018-12-16T14:23:49.648Z,4.96
2018-12-16T14:26:17.881Z,4.99
2018-12-16T14:28:46.172Z,4.99
2018-12-16T14:31:14.342Z,5.02
2018-12-16T14:33:42.549Z,5.05
2018-12-16T14:36:10.888Z,4.99
2018-12-16T14:38:39.112Z,5.02
2018-12-16T14:41:07.277Z,4.99
2018-12-16T14:43:35.432Z,5.04
2018-12-16T14:46:03.735Z,5.12
2018-12-16T14:48:31.905Z,5.15
2018-12-16T14:51:00.086Z,5.10
2018-12-16T14:53:28.312Z,5.07
2018-12-16T14:55:56.723Z,5.05
2018-12-16T14:58:24.932Z,5.06
2018-12-16T15:00:53.245Z,5.13
2018-12-16T15:03:21.802Z,5.12
2018-12-16T15:05:50.013Z,5.07
2018-12-16T15:08:18.184Z,5.04
2018-12-16T15:10:46.408Z,5.00
2018-12-16T15:13:14.636Z,4.96
2018-12-16T15:15:42.899Z,4.96
2018-12-16T15:18:11.252Z,4.99
2018-12-16T15:20:39.559Z,4.91
2018-12-16T15:23:07.728Z,4.85
2018-12-16T15:25:36.065Z,4.78
2018-12-16T15:28:04.296Z,4.69
2018-12-16T15:30:32.472Z,4.74
2018-12-16T15:33:00.763Z,4.66
2018-12-16T15:35:28.927Z,4.64
2018-12-16T15:37:57.102Z,4.66
2018-12-16T15:40:25.278Z,4.69
2018-12-16T15:42:53.659Z,4.60
2018-12-16T15:45:21.877Z,4.55
2018-12-16T15:47:50.109Z,4.55
2018-12-16T15:50:18.417Z,4.45
2018-12-16T15:52:46.703Z,4.48
2018-12-16T15:55:14.956Z,4.55
2018-12-16T15:57:43.191Z,4.56
2018-12-16T16:00:12.204Z,4.53
2018-12-16T16:02:40.426Z,4.50
2018-12-16T16:05:08.763Z,4.54
2018-12-16T16:07:37.084Z,4.50
2018-12-16T16:10:06.156Z,4.47
2018-12-16T16:12:34.308Z,4.40
2018-12-16T16:15:02.547Z,4.33
2018-12-16T16:17:31.016Z,4.35
2018-12-16T16:19:59.255Z,4.42
2018-12-16T16:22:27.441Z,4.47
2018-12-16T16:24:55.705Z,4.54
2018-12-16T16:27:24.066Z,4.45
2018-12-16T16:29:52.350Z,4.44
2018-12-16T16:32:20.636Z,4.42
2018-12-16T16:34:48.804Z,4.44
2018-12-16T16:37:16.975Z,4.56
2018-12-16T16:39:45.140Z,4.52
2018-12-16T16:42:13.301Z,4.50
2018-12-16T16:44:41.503Z,4.50
2018-12-16T16:47:09.787Z,4.52
2018-12-16T16:49:37.963Z,4.56
2018-12-16T16:52:06.300Z,4.55
2018-12-16T16:54:34.548Z,4.62
2018-12-16T16:57:02.904Z,4.72
2018-12-16T16:59:31.075Z,4.71
2018-12-16T17:01:59.454Z,4.70
2018-12-16T17:04:27.615Z,4.72
2018-12-16T17:06:55.859Z,4.76
2018-12-16T17:09:24.084Z,4.76
2018-12-16T17:11:52.382Z,4.77
2018-12-16T17:14:20.540Z,4.81
2018-12-16T17:16:48.828Z,4.81
2018-12-16T17:19:17.328Z,4.74
2018-12-16T17:21:45.563Z,4.70
2018-12-16T17:24:13.723Z,4.71
2018-12-16T17:26:42.135Z,4.72
2018-12-16T17:29:10.287Z,4.66
2018-12-16T17:31:38.658Z,4.70
2018-12-16T17:34:06.950Z,4.73
2018-12-16T17:39:17.143Z,4.73
2018-12-16T17:41:45.320Z,4.74
2018-12-16T17:44:13.475Z,4.63
2018-12-16T17:46:41.655Z,4.63
2018-12-16T17:49:09.928Z,4.74
2018-12-16T17:51:38.307Z,4.74
2018-12-16T17:54:06.468Z,4.74
2018-12-16T17:56:37.235Z,4.63
2018-12-16T17:59:04.884Z,4.65
2018-12-16T18:01:33.157Z,4.76
2018-12-16T18:04:01.311Z,4.80
2018-12-16T18:06:29.483Z,4.76
2018-12-16T18:08:57.644Z,4.73
2018-12-16T18:11:25.968Z,4.71
2018-12-16T18:13:54.176Z,4.68
2018-12-16T18:16:22.408Z,4.73
2018-12-16T18:18:50.580Z,4.74
2018-12-16T18:21:18.767Z,4.74
2018-12-16T18:23:46.939Z,4.81
2018-12-16T18:26:15.118Z,4.87
2018-12-16T18:28:43.397Z,4.92
2018-12-16T18:31:11.669Z,4.85
2018-12-16T18:33:39.936Z,4.85
2018-12-16T18:36:08.220Z,4.79
2018-12-16T18:38:36.487Z,4.71
2018-12-16T18:41:04.895Z,4.75
2018-12-16T18:43:33.095Z,4.79
2018-12-16T18:46:01.277Z,4.70
2018-12-16T18:48:29.530Z,4.65
2018-12-16T18:50:57.680Z,4.72
2018-12-16T18:53:26.047Z,4.67
2018-12-16T18:55:54.211Z,4.75
2018-12-16T18:58:22.407Z,4.79
2018-12-16T19:00:50.795Z,4.78
2018-12-16T19:03:18.963Z,4.83
2018-12-16T19:05:47.235Z,4.83
2018-12-16T19:08:16.347Z,4.87
2018-12-16T19:10:44.707Z,4.73
2018-12-16T19:13:12.991Z,4.72
2018-12-16T19:15:41.151Z,4.78
2018-12-16T19:18:09.443Z,4.83
2018-12-16T19:20:37.787Z,4.78
2018-12-16T19:23:06.009Z,4.76
2018-12-16T19:25:34.164Z,4.84
2018-12-16T19:28:02.483Z,4.84
2018-12-16T19:30:30.728Z,4.81
2018-12-16T19:32:58.911Z,4.77
2018-12-16T19:35:27.068Z,4.82
2018-12-16T19:37:55.302Z,4.86
2018-12-16T19:40:23.533Z,4.88
2018-12-16T19:42:51.684Z,4.90
2018-12-16T19:45:19.852Z,4.87
2018-12-16T19:47:49.677Z,4.77
2018-12-16T19:50:17.988Z,4.71
2018-12-16T19:52:46.156Z,4.68
2018-12-16T19:55:15.167Z,4.73
2018-12-16T19:57:43.408Z,4.77
2018-12-16T20:00:11.840Z,4.89
2018-12-16T20:02:40.063Z,4.93
2018-12-16T20:05:13.058Z,4.92
2018-12-16T20:07:41.237Z,4.97
2018-12-16T20:10:09.632Z,5.05
2018-12-16T20:12:37.786Z,5.11
2018-12-16T20:15:06.768Z,5.21
2018-12-16T20:17:34.961Z,5.20
2018-12-16T20:20:03.367Z,5.14
2018-12-16T20:22:31.624Z,5.14
2018-12-16T20:24:59.791Z,5.11
2018-12-16T20:27:28.140Z,5.09
2018-12-16T20:29:56.472Z,5.15
2018-12-16T20:32:24.640Z,5.19
2018-12-16T20:34:52.820Z,5.31
2018-12-16T20:37:21.068Z,5.26
2018-12-16T20:39:49.348Z,5.24
2018-12-16T20:42:17.535Z,5.31
2018-12-16T20:44:45.728Z,5.31
2018-12-16T20:47:13.929Z,5.31
2018-12-16T20:49:42.095Z,5.32
2018-12-16T20:52:10.464Z,5.29
2018-12-16T20:54:38.696Z,5.29
2018-12-16T20:57:06.883Z,5.36
2018-12-16T20:59:35.053Z,5.41
2018-12-16T21:02:03.225Z,5.46
2018-12-16T21:04:31.404Z,5.54
2018-12-16T21:06:59.577Z,5.60
2018-12-16T21:09:27.734Z,5.67
2018-12-16T21:12:01.096Z,5.61
2018-12-16T21:14:35.205Z,5.63
2018-12-16T21:17:08.824Z,5.65
2018-12-16T21:19:37.228Z,5.69
2018-12-16T21:22:10.119Z,5.75
2018-12-16T21:24:38.285Z,5.79
2018-12-16T21:27:06.832Z,5.83
2018-12-16T21:29:35.180Z,5.86
2018-12-16T21:32:03.472Z,5.90
2018-12-16T21:34:31.671Z,5.98
2018-12-16T21:36:59.836Z,6.00
2018-12-16T21:39:28.007Z,6.05
2018-12-16T21:41:56.175Z,6.05
2018-12-16T21:44:24.447Z,6.08
2018-12-16T21:46:53.219Z,6.11
2018-12-16T21:49:21.377Z,6.13
2018-12-16T21:51:50.580Z,6.15
2018-12-16T21:54:18.759Z,6.17
2018-12-16T21:56:47.048Z,6.10
2018-12-16T21:59:15.325Z,6.00
2018-12-16T22:01:43.553Z,5.95
2018-12-16T22:04:11.718Z,5.90
2018-12-16T22:06:39.943Z,5.88
2018-12-16T22:09:08.641Z,5.82
2018-12-16T22:11:36.808Z,5.80
2018-12-16T22:14:05.104Z,5.79
2018-12-16T22:16:33.307Z,5.83
2018-12-16T22:19:01.539Z,5.84
2018-12-16T22:21:29.713Z,5.92
2018-12-16T22:23:57.888Z,5.95
2018-12-16T22:26:26.048Z,5.97
2018-12-16T22:28:54.247Z,6.00
2018-12-16T22:31:22.458Z,6.00
2018-12-16T22:33:50.798Z,6.00
2018-12-16T22:36:18.964Z,5.98
2018-12-16T22:38:47.147Z,6.00
2018-12-16T22:41:15.307Z,5.99
2018-12-16T22:43:43.883Z,5.98
2018-12-16T22:46:12.319Z,6.01
2018-12-16T22:48:42.269Z,6.06
2018-12-16T22:51:10.620Z,5.98
2018-12-16T22:53:38.801Z,5.97
2018-12-16T22:56:07.144Z,6.00
2018-12-16T22:58:35.327Z,6.01
2018-12-16T23:01:09.116Z,5.96
2018-12-16T23:03:37.501Z,5.91
2018-12-16T23:06:05.661Z,5.88
2018-12-16T23:08:33.815Z,5.89
2018-12-16T23:11:02.142Z,5.94
2018-12-16T23:13:30.507Z,5.99
2018-12-16T23:15:58.784Z,6.03
2018-12-16T23:18:26.955Z,6.12
2018-12-16T23:20:55.137Z,6.13
2018-12-16T23:23:23.379Z,6.07
2018-12-16T23:25:51.580Z,5.99
2018-12-16T23:28:20.032Z,5.99
2018-12-16T23:30:48.363Z,5.94
2018-12-16T23:33:16.572Z,5.95
2018-12-16T23:35:44.747Z,6.01
2018-12-16T23:38:12.960Z,6.04
2018-12-16T23:40:41.263Z,6.04
2018-12-16T23:43:09.419Z,6.04
2018-12-16T23:45:37.593Z,5.99
2018-12-16T23:48:05.745Z,5.95
2018-12-16T23:50:34.468Z,5.89
2018-12-16T23:53:02.676Z,5.88
2018-12-16T23:55:30.907Z,5.91
2018-12-16T23:58:01.235Z,5.94
